Time;durP1;ratioP1;P1;durP2;ratioP2;P2;SDS_P1;SDS_P2;PMS_P1;PMS_P2;Temp;Humidity;BMP_temperature;BMP_pressure;BME280_temperature;BME280_humidity;BME280_pressure;Samples;Min_cycle;Max_cycle;Signal;HPM_P1;HPM_P2
2024/02/14 00:00:48;;;;;;;6.80;5.50;;;;;;;8.42;85.29;98939.11;107375;1254;59488;-40
2024/02/14 00:03:16;;;;;;;7.10;5.00;;;;;;;8.40;85.32;98940.69;107309;1253;71750;-40
2024/02/14 00:05:43;;;;;;;4.90;4.10;;;;;;;8.44;85.29;98937.59;107246;1254;67142;-40
2024/02/14 00:08:13;;;;;;;5.20;4.60;;;;;;;8.48;85.00;98940.94;107309;1253;72695;-39
2024/02/14 00:10:40;;;;;;;5.20;4.50;;;;;;;8.48;85.06;98941.91;107324;1254;59261;-40
2024/02/14 00:13:09;;;;;;;6.10;4.70;;;;;;;8.46;85.29;98942.50;107352;1254;59582;-40
2024/02/14 00:15:37;;;;;;;5.30;4.20;;;;;;;8.43;85.24;98942.67;107253;1259;73082;-40
2024/02/14 00:18:05;;;;;;;4.90;3.70;;;;;;;8.44;84.98;98940.53;107369;1259;68342;-40
2024/02/14 00:20:33;;;;;;;4.20;3.70;;;;;;;8.45;84.88;98940.35;107329;1256;72434;-40
2024/02/14 00:23:01;;;;;;;6.10;3.90;;;;;;;8.42;84.99;98942.42;107348;1259;60097;-40
2024/02/14 00:25:30;;;;;;;4.50;3.80;;;;;;;8.38;85.28;98942.56;107316;1254;59199;-40
2024/02/14 00:28:00;;;;;;;4.10;3.70;;;;;;;8.36;85.50;98940.61;107294;1254;72264;-40
2024/02/14 00:30:28;;;;;;;3.40;2.70;;;;;;;8.37;85.32;98942.92;107336;1259;68359;-40
2024/02/14 00:32:57;;;;;;;3.90;3.20;;;;;;;8.39;85.21;98945.00;107355;1259;71065;-40
2024/02/14 00:35:25;;;;;;;3.10;2.80;;;;;;;8.36;85.34;98946.92;107367;1259;59730;-40
2024/02/14 00:37:53;;;;;;;3.10;2.80;;;;;;;8.30;85.42;98945.27;107478;1253;59487;-40
2024/02/14 00:40:20;;;;;;;3.40;2.70;;;;;;;8.28;85.60;98943.96;107341;1254;71820;-40
2024/02/14 00:42:48;;;;;;;3.90;3.40;;;;;;;8.29;85.56;98945.54;107322;1253;68665;-40
2024/02/14 00:45:15;;;;;;;5.30;3.80;;;;;;;8.37;85.70;98946.33;107367;1254;72681;-40
2024/02/14 00:47:43;;;;;;;5.10;4.20;;;;;;;8.42;85.93;98948.20;107337;1257;59679;-39
2024/02/14 00:50:13;;;;;;;5.30;4.60;;;;;;;8.44;85.94;98950.88;107305;1254;59845;-40
2024/02/14 00:52:41;;;;;;;4.40;3.90;;;;;;;8.46;85.91;98951.70;107244;1254;71550;-40
2024/02/14 00:55:09;;;;;;;4.40;3.50;;;;;;;8.49;85.34;98949.27;107305;1259;68313;-40
2024/02/14 00:57:36;;;;;;;4.40;3.30;;;;;;;8.49;84.73;98952.45;107328;1254;72668;-40
2024/02/14 01:00:06;;;;;;;4.80;3.40;;;;;;;8.43;84.52;98947.61;107270;1254;60098;-40
2024/02/14 01:02:34;;;;;;;;;;;;;;;8.36;84.68;98944.76;107312;1254;59678;-40
2024/02/14 01:05:04;;;;;;;4.90;3.40;;;;;;;8.27;84.58;98941.95;107355;1254;71745;-40
2024/02/14 01:07:31;;;;;;;3.50;3.10;;;;;;;8.22;84.58;98943.46;107313;1259;68349;-40
2024/02/14 01:09:59;;;;;;;4.20;2.70;;;;;;;8.22;84.40;98945.84;107348;1259;72628;-40
2024/02/14 01:12:27;;;;;;;5.50;2.80;;;;;;;8.20;84.38;98947.19;107371;1258;60371;-40
2024/02/14 01:14:54;;;;;;;3.00;2.70;;;;;;;8.16;84.43;98943.78;107342;1257;60050;-40
2024/02/14 01:17:22;;;;;;;3.40;2.80;;;;;;;8.14;84.64;98944.42;107377;1254;73082;-40
2024/02/14 01:19:49;;;;;;;2.60;2.30;;;;;;;8.11;84.60;98944.22;107344;1259;68401;-40
2024/02/14 01:22:18;;;;;;;2.60;2.40;;;;;;;8.11;84.19;98942.98;107375;1259;72789;-40
2024/02/14 01:24:45;;;;;;;3.00;2.40;;;;;;;8.13;83.78;98941.70;107346;1259;59657;-40
2024/02/14 01:27:13;;;;;;;3.60;2.50;;;;;;;8.06;83.51;98947.66;107359;1255;60128;-39
2024/02/14 01:29:40;;;;;;;2.90;2.20;;;;;;;7.93;83.55;98949.66;107346;1254;71810;-40
2024/02/14 01:32:09;;;;;;;3.70;2.50;;;;;;;7.79;83.81;98947.59;107360;1258;68433;-39
2024/02/14 01:34:37;;;;;;;2.60;2.20;;;;;;;7.72;83.90;98947.80;107220;1259;72725;-39
2024/02/14 01:37:04;;;;;;;2.50;2.10;;;;;;;7.71;83.95;98949.38;107209;1257;59621;-40
2024/02/14 01:39:32;;;;;;;2.70;2.10;;;;;;;7.65;83.98;98948.64;107321;1257;59529;-40
2024/02/14 01:41:59;;;;;;;3.50;2.30;;;;;;;7.57;84.20;98949.90;107331;1260;73022;-40
2024/02/14 01:44:26;;;;;;;2.90;2.10;;;;;;;7.52;84.66;98952.79;107296;1260;68419;-40
2024/02/14 01:46:54;;;;;;;1.90;1.60;;;;;;;7.54;84.68;98954.63;107325;1259;72465;-40
2024/02/14 01:49:21;;;;;;;1.90;1.70;;;;;;;7.58;84.52;98957.88;107236;1260;60132;-40
2024/02/14 01:51:49;;;;;;;2.30;1.70;;;;;;;7.56;84.46;98951.89;107303;1258;59560;-40
2024/02/14 01:54:18;;;;;;;2.60;1.90;;;;;;;7.52;84.49;98958.71;107339;1257;73018;-40
2024/02/14 01:56:46;;;;;;;2.20;1.90;;;;;;;7.45;84.43;98954.24;107359;1255;68494;-40
2024/02/14 01:59:15;;;;;;;2.30;1.90;;;;;;;7.45;84.35;98955.41;107271;1261;71358;-39
2024/02/14 02:01:43;;;;;;;2.60;2.10;;;;;;;7.48;84.24;98959.32;107411;1257;59828;-40
2024/02/14 02:04:10;;;;;;;2.30;2.10;;;;;;;7.42;84.28;98958.80;107370;1259;59589;-40
2024/02/14 02:06:40;;;;;;;3.00;1.90;;;;;;;7.33;84.33;98955.17;107221;1260;71762;-39
2024/02/14 02:09:08;;;;;;;1.90;1.70;;;;;;;7.27;84.54;98956.20;107253;1257;68498;-40
2024/02/14 02:11:48;;;;;;;1.80;1.60;;;;;;;7.27;84.53;98957.34;107212;1258;71410;-40
2024/02/14 02:14:16;;;;;;;1.90;1.60;;;;;;;7.30;84.44;98961.20;107218;1257;59621;-40
2024/02/14 02:16:45;;;;;;;1.80;1.50;;;;;;;7.29;84.36;98959.79;107304;1259;59785;-40
2024/02/14 02:19:15;;;;;;;1.90;1.70;;;;;;;7.24;84.34;98962.29;107256;1257;72959;-40
2024/02/14 02:21:46;;;;;;;1.70;1.60;;;;;;;7.19;84.06;98965.46;107174;1260;68340;-39
2024/02/14 02:24:14;;;;;;;2.10;1.80;;;;;;;7.13;83.80;98972.52;107213;1260;72490;-40
2024/02/14 02:26:41;;;;;;;2.10;1.60;;;;;;;7.10;83.53;98971.45;107224;1261;61050;-40
2024/02/14 02:29:09;;;;;;;2.10;1.90;;;;;;;7.09;83.45;98973.96;107286;1254;59743;-39
2024/02/14 02:31:38;;;;;;;1.60;1.50;;;;;;;7.02;83.10;98975.72;107270;1260;73803;-39
2024/02/14 02:34:05;;;;;;;2.60;1.70;;;;;;;6.92;83.24;98974.77;107277;1257;68352;-39
2024/02/14 02:36:35;;;;;;;2.00;1.80;;;;;;;6.84;83.15;98976.61;107367;1260;71203;-39
2024/02/14 02:39:04;;;;;;;1.90;1.70;;;;;;;6.79;83.17;98978.30;107320;1256;60560;-39
2024/02/14 02:41:33;;;;;;;2.10;1.90;;;;;;;6.76;83.14;98982.79;107427;1259;60415;-39
2024/02/14 02:44:01;;;;;;;2.20;2.00;;;;;;;6.68;83.28;98987.65;107306;1260;73012;-39
2024/02/14 02:46:29;;;;;;;2.80;2.50;;;;;;;6.60;83.54;98985.72;107325;1258;67537;-40
2024/02/14 02:48:58;;;;;;;3.00;2.00;;;;;;;6.52;83.76;98985.73;107363;1260;72794;-39
2024/02/14 02:51:27;;;;;;;2.40;2.10;;;;;;;6.48;83.92;98988.48;107278;1257;61615;-40
2024/02/14 02:53:55;;;;;;;3.00;2.00;;;;;;;6.48;83.87;98988.77;107321;1258;60521;-39
2024/02/14 02:56:27;;;;;;;2.60;2.20;;;;;;;6.43;83.99;98991.16;107413;1256;73145;-39
2024/02/14 02:58:55;;;;;;;3.80;2.40;;;;;;;6.36;84.45;99000.19;107298;1260;67446;-39
2024/02/14 03:01:24;;;;;;;3.10;2.50;;;;;;;6.34;84.73;99003.65;107357;1258;71493;-39
2024/02/14 03:03:52;;;;;;;3.00;2.50;;;;;;;6.35;84.68;99001.77;107344;1260;60701;-39
2024/02/14 03:06:20;;;;;;;3.60;2.50;;;;;;;6.38;84.57;99001.64;107266;1260;60227;-40
2024/02/14 03:08:48;;;;;;;2.80;2.50;;;;;;;6.38;84.67;98996.55;107289;1255;73831;-41
2024/02/14 03:11:16;;;;;;;3.80;2.90;;;;;;;6.36;84.59;98995.19;107315;1258;67083;-40
2024/02/14 03:13:44;;;;;;;3.90;3.00;;;;;;;6.32;84.62;98994.27;107249;1258;71829;-39
2024/02/14 03:16:11;;;;;;;2.90;2.40;;;;;;;6.26;84.60;98996.13;107252;1258;60550;-39
2024/02/14 03:18:39;;;;;;;2.80;2.50;;;;;;;6.28;84.49;98999.09;107279;1256;60240;-39
2024/02/14 03:21:06;;;;;;;2.60;2.30;;;;;;;6.28;84.33;99001.34;107308;1257;73807;-40
2024/02/14 03:23:34;;;;;;;2.30;2.10;;;;;;;6.23;84.35;99002.26;107279;1258;67085;-39
2024/02/14 03:26:07;;;;;;;3.10;2.30;;;;;;;6.18;84.67;98999.16;107191;1257;72690;-39
2024/02/14 03:28:34;;;;;;;2.50;2.30;;;;;;;6.12;84.70;99002.77;107258;1257;60873;-39
2024/02/14 03:31:02;;;;;;;2.60;2.40;;;;;;;6.14;84.71;99005.66;107245;1255;60432;-40
2024/02/14 03:33:29;;;;;;;4.20;2.20;;;;;;;6.16;84.47;99008.65;107200;1257;72809;-39
2024/02/14 03:35:57;;;;;;;2.90;2.50;;;;;;;6.09;84.53;99010.52;107278;1258;67095;-40
2024/02/14 03:38:26;;;;;;;3.10;2.60;;;;;;;6.06;84.72;99014.27;107204;1260;71682;-39
2024/02/14 03:40:54;;;;;;;2.90;2.50;;;;;;;6.02;84.86;99016.00;107313;1258;61662;-40
2024/02/14 03:43:23;;;;;;;2.70;2.40;;;;;;;6.03;84.76;99011.63;107398;1259;60515;-39
2024/02/14 03:45:51;;;;;;;2.60;2.40;;;;;;;6.05;84.58;99013.25;107307;1260;72582;-40
2024/02/14 03:48:19;;;;;;;2.40;2.20;;;;;;;6.03;84.60;99016.04;107294;1258;68473;-40
2024/02/14 03:50:47;;;;;;;2.80;2.50;;;;;;;5.99;84.77;99014.52;107273;1256;72469;-40
2024/02/14 03:53:14;;;;;;;3.20;2.40;;;;;;;5.96;84.92;99014.33;107362;1254;60483;-39
2024/02/14 03:55:42;;;;;;;3.00;2.20;;;;;;;5.95;84.89;99022.15;107266;1257;60451;-39
2024/02/14 03:58:10;;;;;;;2.80;2.30;;;;;;;5.95;84.44;99024.84;107210;1257;73753;-39
2024/02/14 04:00:37;;;;;;;2.90;2.70;;;;;;;5.89;84.70;99023.42;107243;1258;67603;-39
2024/02/14 04:03:06;;;;;;;2.50;2.30;;;;;;;5.85;84.89;99030.70;107221;1257;71437;-39
2024/02/14 04:05:34;;;;;;;2.60;2.40;;;;;;;5.79;85.00;99034.20;107312;1257;60984;-40
2024/02/14 04:08:03;;;;;;;2.10;1.90;;;;;;;5.78;84.98;99032.11;107297;1258;60287;-39
2024/02/14 04:10:30;;;;;;;2.40;1.90;;;;;;;5.78;84.83;99038.56;107273;1257;73866;-40
2024/02/14 04:12:58;;;;;;;2.60;2.40;;;;;;;5.76;85.08;99039.26;107333;1257;67112;-40
2024/02/14 04:15:25;;;;;;;3.00;2.30;;;;;;;5.73;85.28;99038.00;107311;1260;72716;-39
2024/02/14 04:17:53;;;;;;;2.80;2.50;;;;;;;5.69;85.44;99040.29;107253;1260;60417;-40
2024/02/14 04:20:21;;;;;;;3.40;2.00;;;;;;;5.71;85.43;99040.85;107409;1259;60347;-40
2024/02/14 04:22:48;;;;;;;3.10;2.40;;;;;;;5.74;85.14;99040.05;107287;1255;72640;-40
2024/02/14 04:25:16;;;;;;;2.80;2.20;;;;;;;5.73;85.20;99042.91;107291;1255;66966;-40
2024/02/14 04:27:43;;;;;;;2.80;2.20;;;;;;;5.69;85.47;99048.33;107260;1258;72716;-40
2024/02/14 04:30:11;;;;;;;3.20;2.50;;;;;;;5.64;85.51;99051.31;107264;1257;60557;-40
2024/02/14 04:32:39;;;;;;;2.60;2.20;;;;;;;5.64;85.42;99054.17;107312;1257;60328;-39
2024/02/14 04:35:08;;;;;;;2.80;2.30;;;;;;;5.70;85.46;99054.95;107392;1256;72547;-39
2024/02/14 04:37:36;;;;;;;2.70;2.40;;;;;;;5.74;85.53;99059.01;107327;1257;66744;-40
2024/02/14 04:40:05;;;;;;;3.30;2.60;;;;;;;5.73;85.45;99061.88;107389;1257;72647;-39
2024/02/14 04:42:33;;;;;;;2.60;2.20;;;;;;;5.72;85.55;99064.23;107338;1260;60434;-39
2024/02/14 04:45:01;;;;;;;2.50;2.20;;;;;;;5.71;85.52;99071.23;107291;1258;60288;-40
2024/02/14 04:47:29;;;;;;;2.90;2.30;;;;;;;5.75;85.30;99074.17;107264;1257;73845;-40
2024/02/14 04:49:58;;;;;;;2.40;2.20;;;;;;;5.79;84.92;99079.92;107300;1260;67435;-39
2024/02/14 04:52:26;;;;;;;3.10;2.80;;;;;;;5.77;84.70;99086.70;107235;1257;72475;-39
2024/02/14 04:54:54;;;;;;;3.80;2.70;;;;;;;5.73;84.88;99085.56;107277;1257;60144;-40
2024/02/14 04:57:21;;;;;;;3.20;2.50;;;;;;;5.71;84.86;99085.43;107231;1258;60315;-40
2024/02/14 04:59:49;;;;;;;3.20;2.10;;;;;;;5.72;84.63;99090.13;107263;1257;73897;-39
2024/02/14 05:02:17;;;;;;;4.40;2.30;;;;;;;5.73;84.38;99094.58;107309;1259;67108;-40
2024/02/14 05:04:44;;;;;;;2.60;2.10;;;;;;;5.72;84.37;99098.21;107202;1256;73317;-40
2024/02/14 05:07:12;;;;;;;2.40;2.10;;;;;;;5.68;84.52;99099.09;107341;1257;60441;-40
2024/02/14 05:09:39;;;;;;;3.90;2.80;;;;;;;5.65;84.46;99102.98;107217;1258;60284;-40
2024/02/14 05:12:10;;;;;;;2.40;2.00;;;;;;;5.65;84.18;99109.23;107332;1256;72659;-40
2024/02/14 05:14:38;;;;;;;2.90;2.10;;;;;;;5.65;84.08;99113.00;107389;1259;68588;-40
2024/02/14 05:17:07;;;;;;;1.70;1.50;;;;;;;5.62;84.11;99113.27;107295;1256;72387;-40
2024/02/14 05:19:35;;;;;;;2.60;2.20;;;;;;;5.57;84.15;99116.48;107254;1258;59298;-40
2024/02/14 05:22:02;;;;;;;3.20;2.30;;;;;;;5.50;84.28;99118.91;107253;1257;60386;-39
2024/02/14 05:24:31;;;;;;;2.70;2.20;;;;;;;5.48;84.22;99123.21;107273;1257;73843;-39
2024/02/14 05:26:59;;;;;;;2.20;1.80;;;;;;;5.47;84.14;99125.25;107295;1257;67636;-40
2024/02/14 05:29:26;;;;;;;1.80;1.60;;;;;;;5.44;84.62;99128.06;107257;1260;71144;-40
2024/02/14 05:31:55;;;;;;;1.90;1.70;;;;;;;5.44;84.82;99130.30;107287;1257;60460;-39
2024/02/14 05:34:23;;;;;;;4.80;1.90;;;;;;;5.41;84.81;99135.35;107374;1255;60783;-40
2024/02/14 05:36:52;;;;;;;2.30;1.60;;;;;;;5.38;84.35;99134.21;107270;1257;72291;-40
2024/02/14 05:39:20;;;;;;;1.70;1.50;;;;;;;5.35;84.44;99135.27;107306;1258;67570;-40
2024/02/14 05:41:48;;;;;;;2.00;1.80;;;;;;;5.31;84.86;99134.51;107266;1257;71355;-40
2024/02/14 05:44:16;;;;;;;1.50;1.30;;;;;;;5.24;85.34;99125.73;107412;1257;60454;-40
2024/02/14 05:46:45;;;;;;;1.50;1.40;;;;;;;5.31;85.49;99142.60;107387;1257;60223;-40
2024/02/14 05:49:12;;;;;;;2.30;1.70;;;;;;;5.35;85.18;99140.35;107307;1256;74149;-40
2024/02/14 05:51:40;;;;;;;1.60;1.50;;;;;;;5.40;84.95;99138.83;107304;1258;67172;-40
2024/02/14 05:54:08;;;;;;;2.60;1.40;;;;;;;5.40;85.03;99144.77;107248;1256;72467;-40
2024/02/14 05:56:36;;;;;;;1.90;1.50;;;;;;;5.38;85.11;99148.45;107383;1258;60191;-39
2024/02/14 05:59:04;;;;;;;1.90;1.50;;;;;;;5.38;85.33;99158.41;107289;1256;58754;-39
2024/02/14 06:01:31;;;;;;;2.00;1.40;;;;;;;5.43;85.10;99154.54;107288;1257;72615;-40
2024/02/14 06:03:59;;;;;;;2.00;1.50;;;;;;;5.50;84.55;99155.08;107380;1257;67285;-39
2024/02/14 06:06:27;;;;;;;1.40;1.30;;;;;;;5.49;84.53;99160.75;107283;1257;72322;-39
2024/02/14 06:08:55;;;;;;;1.40;1.30;;;;;;;5.47;84.52;99166.27;107306;1255;60164;-40
2024/02/14 06:11:22;;;;;;;1.90;1.40;;;;;;;5.45;84.76;99164.14;107390;1257;60332;-40
2024/02/14 06:13:50;;;;;;;1.80;1.20;;;;;;;5.43;84.62;99167.11;107296;1257;73875;-40
2024/02/14 06:16:17;;;;;;;1.60;1.30;;;;;;;5.45;84.17;99167.65;107288;1256;68425;-40
2024/02/14 06:18:45;;;;;;;1.80;1.50;;;;;;;5.49;84.05;99169.58;107287;1256;72701;-40
2024/02/14 06:21:13;;;;;;;2.40;1.40;;;;;;;5.51;84.24;99171.71;107296;1257;60306;-40
2024/02/14 06:23:41;;;;;;;2.40;2.10;;;;;;;5.49;84.26;99172.63;107423;1259;60338;-40
2024/02/14 06:26:10;;;;;;;2.00;1.70;;;;;;;5.44;84.15;99168.63;107270;1256;72664;-40
2024/02/14 06:28:37;;;;;;;2.20;1.60;;;;;;;5.40;84.05;99171.27;107298;1257;67126;-40
2024/02/14 06:31:04;;;;;;;2.00;1.40;;;;;;;5.44;84.10;99168.80;107424;1256;71536;-40
2024/02/14 06:33:32;;;;;;;2.30;1.50;;;;;;;5.44;83.85;99171.01;107277;1256;61018;-40
2024/02/14 06:36:00;;;;;;;2.40;1.80;;;;;;;5.37;83.97;99170.60;107269;1257;60332;-41
2024/02/14 06:38:28;;;;;;;2.80;2.10;;;;;;;5.30;84.18;99180.63;107285;1257;73904;-40
2024/02/14 06:40:55;;;;;;;2.50;1.80;;;;;;;5.21;84.19;99187.36;107292;1256;68791;-41
2024/02/14 06:43:23;;;;;;;2.10;1.70;;;;;;;5.16;84.31;99188.34;107371;1256;71486;-40
2024/02/14 06:45:50;;;;;;;2.00;1.70;;;;;;;5.15;84.57;99190.46;107166;1256;60180;-41
2024/02/14 06:48:21;;;;;;;2.30;1.80;;;;;;;5.14;84.94;99190.49;107211;1258;59227;-40
2024/02/14 06:50:50;;;;;;;2.60;1.90;;;;;;;5.11;85.29;99195.05;107217;1257;73800;-40
2024/02/14 06:53:18;;;;;;;4.10;2.10;;;;;;;5.11;85.60;99195.96;107296;1257;68716;-40
2024/02/14 06:55:45;;;;;;;2.30;1.80;;;;;;;5.13;85.39;99193.45;107270;1256;71469;-40
2024/02/14 06:58:14;;;;;;;3.10;1.80;;;;;;;5.17;85.30;99197.23;107328;1258;60195;-40
2024/02/14 07:00:42;;;;;;;3.10;2.00;;;;;;;5.13;85.25;99191.83;107225;1257;60306;-40
2024/02/14 07:03:09;;;;;;;2.30;1.60;;;;;;;5.07;85.62;99189.89;107287;1256;73952;-40
2024/02/14 07:05:37;;;;;;;2.20;1.70;;;;;;;5.00;85.62;99189.41;107245;1257;68340;-40
2024/02/14 07:08:05;;;;;;;2.50;1.60;;;;;;;4.97;85.64;99185.58;107249;1256;72430;-40
2024/02/14 07:10:33;;;;;;;2.20;1.60;;;;;;;4.99;85.76;99185.16;107252;1256;60095;-40
2024/02/14 07:13:03;;;;;;;3.60;1.90;;;;;;;4.96;86.03;99187.34;107222;1257;59238;-41
2024/02/14 07:15:30;;;;;;;3.30;2.10;;;;;;;4.91;86.29;99193.00;107386;1259;72676;-40
2024/02/14 07:17:58;;;;;;;2.10;1.50;;;;;;;4.89;86.57;99194.66;107411;1258;68500;-40
2024/02/14 07:20:27;;;;;;;1.80;1.60;;;;;;;4.93;86.64;99205.78;107361;1257;72663;-40
2024/02/14 07:22:56;;;;;;;2.30;1.70;;;;;;;4.98;86.43;99211.60;107288;1257;60032;-40
2024/02/14 07:25:24;;;;;;;2.10;1.80;;;;;;;4.97;86.50;99214.86;107413;1256;60432;-40
2024/02/14 07:27:52;;;;;;;3.10;2.10;;;;;;;4.96;86.76;99214.84;107290;1257;73818;-40
2024/02/14 07:30:19;;;;;;;2.60;1.90;;;;;;;4.95;86.85;99216.48;107297;1257;68435;-40
2024/02/14 07:32:47;;;;;;;1.80;1.60;;;;;;;5.02;86.81;99222.48;107182;1258;72698;-40
2024/02/14 07:35:16;;;;;;;1.90;1.40;;;;;;;5.09;86.59;99225.85;107362;1257;60348;-40
2024/02/14 07:37:44;;;;;;;2.10;1.60;;;;;;;5.12;86.56;99230.15;107317;1256;60447;-41
2024/02/14 07:40:11;;;;;;;3.00;1.90;;;;;;;5.08;86.60;99223.19;107303;1255;72560;-40
2024/02/14 07:42:43;;;;;;;3.10;1.70;;;;;;;5.16;86.77;99233.33;107406;1256;68881;-40
2024/02/14 07:45:10;;;;;;;5.60;1.70;;;;;;;5.25;86.37;99237.81;107315;1257;72666;-40
2024/02/14 07:47:40;;;;;;;1.80;1.40;;;;;;;5.29;85.70;99243.64;107310;1257;60419;-40
2024/02/14 07:50:08;;;;;;;2.00;1.50;;;;;;;5.24;85.49;99247.23;107317;1256;60415;-40
2024/02/14 07:52:36;;;;;;;3.90;1.80;;;;;;;5.19;85.68;99246.59;107488;1256;71405;-40
2024/02/14 07:55:05;;;;;;;3.80;1.80;;;;;;;5.16;85.72;99253.05;107356;1256;68400;-41
2024/02/14 07:57:32;;;;;;;2.40;1.70;;;;;;;5.21;85.56;99256.48;107307;1257;72445;-41
2024/02/14 08:00:00;;;;;;;2.70;1.20;;;;;;;5.29;85.51;99258.56;107317;1256;60437;-40
2024/02/14 08:02:30;;;;;;;2.30;1.60;;;;;;;5.33;85.46;99258.46;107257;1257;60191;-40
2024/02/14 08:04:58;;;;;;;1.90;1.30;;;;;;;5.29;85.01;99260.79;107288;1257;74416;-40
2024/02/14 08:07:25;;;;;;;2.80;1.60;;;;;;;5.22;85.21;99263.58;107414;1257;68583;-40
2024/02/14 08:09:53;;;;;;;3.40;1.40;;;;;;;5.22;85.32;99265.98;107273;1260;72814;-40
2024/02/14 08:12:21;;;;;;;2.00;1.40;;;;;;;5.29;85.16;99267.83;107277;1257;61697;-41
2024/02/14 08:14:49;;;;;;;2.40;1.60;;;;;;;5.33;84.79;99265.44;107218;1260;60440;-40
2024/02/14 08:17:17;;;;;;;2.40;1.80;;;;;;;5.29;84.72;99265.61;107306;1257;72694;-40
2024/02/14 08:19:45;;;;;;;2.10;1.70;;;;;;;5.25;84.97;99261.38;107286;1257;68019;-40
2024/02/14 08:22:13;;;;;;;2.00;1.40;;;;;;;5.24;85.23;99259.04;107239;1256;72734;-40
2024/02/14 08:24:40;;;;;;;3.00;1.50;;;;;;;5.29;85.03;99259.01;107248;1256;60767;-40
2024/02/14 08:27:08;;;;;;;1.80;1.30;;;;;;;5.34;84.86;99264.48;107316;1256;61095;-40
2024/02/14 08:29:36;;;;;;;2.00;1.40;;;;;;;5.36;84.92;99274.78;107442;1254;72868;-41
2024/02/14 08:32:04;;;;;;;2.20;1.70;;;;;;;5.36;85.12;99277.63;107413;1254;68352;-40
2024/02/14 08:34:32;;;;;;;1.90;1.50;;;;;;;5.38;85.22;99280.45;107469;1254;72815;-40
2024/02/14 08:37:00;;;;;;;1.90;1.40;;;;;;;5.40;85.04;99289.90;107477;1257;61012;-40
2024/02/14 08:39:28;;;;;;;2.20;1.40;;;;;;;5.46;84.58;99296.52;107495;1254;60160;-40
2024/02/14 08:41:56;;;;;;;2.70;1.40;;;;;;;5.49;84.20;99303.16;107474;1254;73955;-40
2024/02/14 08:44:24;;;;;;;1.60;1.30;;;;;;;5.43;84.16;99312.84;107506;1254;68386;-40
2024/02/14 08:46:53;;;;;;;3.50;1.90;;;;;;;5.39;84.48;99312.35;107468;1256;73588;-40
2024/02/14 08:49:21;;;;;;;2.50;1.60;;;;;;;5.38;84.70;99320.11;107515;1257;60817;-40
2024/02/14 08:51:49;;;;;;;1.50;1.40;;;;;;;5.43;84.65;99327.36;107487;1254;59260;-40
2024/02/14 08:54:17;;;;;;;2.50;1.30;;;;;;;5.52;84.32;99329.17;107482;1254;72631;-40
2024/02/14 08:56:44;;;;;;;2.00;1.50;;;;;;;5.49;84.22;99324.44;107438;1259;68856;-40
2024/02/14 08:59:12;;;;;;;2.10;1.40;;;;;;;5.54;84.08;99334.56;107454;1254;72444;-40
2024/02/14 09:01:40;;;;;;;1.80;1.40;;;;;;;5.48;83.66;99339.98;107453;1259;60381;-41
2024/02/14 09:04:08;;;;;;;2.10;1.40;;;;;;;5.39;83.62;99341.04;107484;1254;60442;-41
2024/02/14 09:06:35;;;;;;;2.70;1.70;;;;;;;5.37;83.33;99342.96;107407;1254;72602;-40
2024/02/14 09:09:03;;;;;;;2.40;1.50;;;;;;;5.39;83.38;99342.95;107493;1254;68894;-40
2024/02/14 09:11:31;;;;;;;2.20;1.50;;;;;;;5.38;83.73;99342.29;107499;1254;73023;-41
2024/02/14 09:14:04;;;;;;;1.90;1.40;;;;;;;5.37;83.89;99342.33;107484;1254;61058;-40
2024/02/14 09:16:35;;;;;;;2.60;1.60;;;;;;;5.33;83.77;99340.54;107493;1254;60427;-40
2024/02/14 09:19:05;;;;;;;2.20;1.50;;;;;;;5.30;83.69;99337.52;107460;1254;73861;-41
2024/02/14 09:21:34;;;;;;;;;;;;;;;5.32;83.75;99337.01;107482;1254;69652;-41
2024/02/14 09:24:02;;;;;;;2.40;1.60;;;;;;;5.33;84.07;99339.95;107478;1254;71868;-40
2024/02/14 09:26:30;;;;;;;2.60;2.20;;;;;;;5.31;84.09;99335.56;107524;1253;60392;-40
2024/02/14 09:28:58;;;;;;;2.70;1.90;;;;;;;5.27;84.12;99337.48;107459;1254;60310;-41
2024/02/14 09:31:25;;;;;;;2.60;1.60;;;;;;;5.28;84.09;99338.83;107431;1253;73981;-41
2024/02/14 09:33:56;;;;;;;2.80;2.20;;;;;;;5.30;83.95;99341.23;107434;1253;67482;-40
2024/02/14 09:36:25;;;;;;;2.50;2.00;;;;;;;5.30;84.19;99346.11;107431;1254;71886;-41
2024/02/14 09:38:53;;;;;;;3.00;2.20;;;;;;;5.25;84.19;99343.71;107455;1254;60415;-41
2024/02/14 09:41:40;;;;;;;2.90;2.00;;;;;;;5.19;84.33;99342.25;107438;1253;60588;-40
2024/02/14 09:44:07;;;;;;;2.60;1.70;;;;;;;5.21;84.44;99341.64;107444;1254;73970;-40
2024/02/14 09:46:38;;;;;;;1.70;1.40;;;;;;;5.27;84.29;99343.33;107483;1253;68814;-41
2024/02/14 09:49:06;;;;;;;2.20;1.90;;;;;;;5.26;84.40;99340.99;107421;1254;72790;-41
2024/02/14 09:51:34;;;;;;;3.10;2.00;;;;;;;5.21;84.47;99343.10;107432;1254;60343;-40
2024/02/14 09:54:02;;;;;;;3.80;2.20;;;;;;;5.17;84.69;99345.02;107414;1259;60479;-41
2024/02/14 09:56:31;;;;;;;2.10;1.60;;;;;;;5.20;84.75;99347.57;107435;1253;72447;-40
2024/02/14 09:59:00;;;;;;;2.00;1.40;;;;;;;5.25;84.74;99347.70;107279;1259;68400;-40
2024/02/14 10:01:28;;;;;;;2.80;1.80;;;;;;;5.27;84.74;99348.17;107443;1254;71484;-40
2024/02/14 10:03:56;;;;;;;2.90;1.70;;;;;;;5.24;84.88;99341.53;107431;1253;60854;-40
2024/02/14 10:06:25;;;;;;;4.10;2.10;;;;;;;5.21;84.80;99343.10;107433;1253;60521;-40
2024/02/14 10:08:53;;;;;;;2.30;1.70;;;;;;;5.24;84.69;99343.85;107431;1253;73938;-40
2024/02/14 10:11:31;;;;;;;2.50;1.80;;;;;;;5.30;84.48;99347.52;107265;1253;68997;-41
2024/02/14 10:14:02;;;;;;;3.00;2.30;;;;;;;5.29;84.65;99349.16;107426;1256;71452;-40
2024/02/14 10:16:31;;;;;;;4.50;2.30;;;;;;;5.26;84.80;99348.27;107430;1254;60492;-40
2024/02/14 10:18:59;;;;;;;4.00;2.20;;;;;;;5.23;84.80;99348.69;107445;1253;60278;-40
2024/02/14 10:21:28;;;;;;;4.50;2.20;;;;;;;5.23;84.46;99347.95;107428;1259;73962;-41
2024/02/14 10:23:59;;;;;;;3.30;2.10;;;;;;;5.28;84.54;99350.13;107477;1254;67603;-40
2024/02/14 10:26:31;;;;;;;1.90;1.60;;;;;;;5.26;84.59;99352.36;107507;1253;71471;-40
2024/02/14 10:28:59;;;;;;;2.80;1.80;;;;;;;5.22;84.83;99351.58;107435;1255;60463;-40
2024/02/14 10:31:27;;;;;;;2.60;1.90;;;;;;;5.20;84.95;99350.12;107335;1254;60418;-40
2024/02/14 10:33:58;;;;;;;2.30;1.70;;;;;;;5.24;84.84;99351.80;107326;1253;73872;-39
2024/02/14 10:36:26;;;;;;;2.70;1.80;;;;;;;5.27;84.61;99358.07;107366;1258;67620;-40
2024/02/14 10:38:54;;;;;;;3.50;2.40;;;;;;;5.24;84.86;99357.41;107258;1256;70566;-40
2024/02/14 10:41:22;;;;;;;3.10;2.10;;;;;;;5.23;85.00;99359.46;107257;1254;142440;-39
2024/02/14 10:46:39;;;;;;;2.60;1.90;;;;;;;5.22;84.71;99359.66;104227;1292;600254;-40
2024/02/14 10:49:07;;;;;;;3.10;2.20;;;;;;;5.23;84.67;99360.02;106600;1268;59264;-40
2024/02/14 10:51:37;;;;;;;2.20;1.90;;;;;;;5.28;84.97;99362.33;106641;1264;60173;-41
2024/02/14 10:54:09;;;;;;;2.70;2.00;;;;;;;5.29;84.98;99362.60;106611;1267;75023;-41
2024/02/14 10:56:39;;;;;;;2.50;1.70;;;;;;;5.29;85.04;99365.73;106624;1269;67117;-41
2024/02/14 10:59:07;;;;;;;3.70;2.30;;;;;;;5.30;84.72;99367.02;106561;1268;173188;-42
2024/02/14 11:01:35;;;;;;;3.70;2.30;;;;;;;5.33;84.49;99368.98;106717;1268;59307;-41
2024/02/14 11:04:04;;;;;;;3.20;2.20;;;;;;;5.33;84.54;99371.13;106779;1267;60122;-41
2024/02/14 11:06:33;;;;;;;3.10;2.30;;;;;;;5.30;84.38;99371.55;106826;1264;70993;-41
2024/02/14 11:09:06;;;;;;;3.10;2.20;;;;;;;5.24;84.30;99368.25;106080;1264;1004169;-41
2024/02/14 11:11:34;;;;;;;3.00;2.20;;;;;;;5.26;84.42;99367.48;106827;1264;72780;-41
2024/02/14 11:14:01;;;;;;;2.60;1.90;;;;;;;5.31;84.18;99367.16;106872;1264;60152;-41
2024/02/14 11:16:32;;;;;;;2.60;1.70;;;;;;;5.29;83.99;99367.82;106844;1267;59122;-41
2024/02/14 11:19:10;;;;;;;6.10;2.40;;;;;;;5.24;84.22;99365.41;106867;1269;72330;-41
2024/02/14 11:21:42;;;;;;;4.10;2.20;;;;;;;5.17;84.05;99368.14;106846;1264;68826;-41
2024/02/14 11:24:17;;;;;;;3.40;1.80;;;;;;;5.19;84.12;99369.05;106861;1264;72786;-40
2024/02/14 11:26:51;;;;;;;4.90;2.80;;;;;;;5.19;84.12;99372.11;106823;1267;59631;-40
2024/02/14 11:29:20;;;;;;;3.50;2.30;;;;;;;5.13;84.29;99367.80;106867;1264;60332;-40
2024/02/14 11:32:01;;;;;;;4.60;2.30;;;;;;;5.07;84.53;99369.02;106826;1264;73188;-40
2024/02/14 11:34:33;;;;;;;3.80;2.40;;;;;;;5.02;84.66;99367.82;106852;1267;68593;-40
2024/02/14 11:37:08;;;;;;;4.50;2.90;;;;;;;5.01;84.81;99369.00;106831;1265;72801;-40
2024/02/14 11:39:36;;;;;;;3.80;2.30;;;;;;;5.04;84.91;99366.44;106813;1264;60129;-41
2024/02/14 11:42:04;;;;;;;3.60;2.40;;;;;;;5.06;85.29;99365.59;106820;1264;60258;-41